createdAt,value
2022-10-25T00:01:21.032Z,16.90
2022-10-25T00:03:47.919Z,17.00
2022-10-25T00:06:16.389Z,17.02
2022-10-25T00:08:42.982Z,17.14
2022-10-25T00:11:20.344Z,16.95
2022-10-25T00:13:49.895Z,16.77
2022-10-25T00:16:18.619Z,16.83
2022-10-25T00:18:45.316Z,16.96
2022-10-25T00:21:11.764Z,16.59
2022-10-25T00:23:38.230Z,16.66
2022-10-25T00:26:06.617Z,16.41
2022-10-25T00:28:33.221Z,16.82
2022-10-25T00:31:05.439Z,17.07
2022-10-25T00:33:34.743Z,16.97
2022-10-25T00:36:05.306Z,17.00
2022-10-25T00:38:31.755Z,16.90
2022-10-25T00:40:58.492Z,17.01
2022-10-25T00:43:34.972Z,17.04
2022-10-25T00:46:05.434Z,16.80
2022-10-25T00:48:32.370Z,16.62
2022-10-25T00:50:58.914Z,16.53
2022-10-25T00:53:35.263Z,16.73
2022-10-25T00:56:19.117Z,16.91
2022-10-25T00:58:50.807Z,16.57
2022-10-25T01:01:17.898Z,16.84
2022-10-25T01:03:46.791Z,16.96
2022-10-25T01:06:23.051Z,16.83
2022-10-25T01:08:51.792Z,16.68
2022-10-25T01:11:19.626Z,17.02
2022-10-25T01:13:46.599Z,16.77
2022-10-25T01:16:25.278Z,17.00
2022-10-25T01:19:23.914Z,16.46
2022-10-25T01:22:04.227Z,16.87
2022-10-25T01:25:08.150Z,16.79
2022-10-25T01:28:05.693Z,17.03
2022-10-25T01:30:56.963Z,17.09
2022-10-25T01:33:32.197Z,17.21
2022-10-25T01:36:20.748Z,16.75
2022-10-25T01:39:18.840Z,17.10
2022-10-25T01:41:54.319Z,17.23
2022-10-25T01:44:30.346Z,17.13
2022-10-25T01:47:06.124Z,16.86
2022-10-25T01:49:44.760Z,16.92
2022-10-25T01:52:11.295Z,16.95
2022-10-25T01:54:37.761Z,16.98
2022-10-25T01:57:21.038Z,17.07
2022-10-25T02:00:10.535Z,17.10
2022-10-25T02:02:50.194Z,17.09
2022-10-25T02:05:23.736Z,17.08
2022-10-25T02:08:00.014Z,17.01
2022-10-25T02:10:37.868Z,17.09
2022-10-25T02:13:25.298Z,17.09
2022-10-25T02:16:04.230Z,16.90
2022-10-25T02:18:35.760Z,16.99
2022-10-25T02:21:03.726Z,17.08
2022-10-25T02:23:33.967Z,16.90
2022-10-25T02:26:01.151Z,16.83
2022-10-25T02:28:28.932Z,16.97
2022-10-25T02:30:56.863Z,16.82
2022-10-25T02:33:23.380Z,17.01
2022-10-25T02:36:12.116Z,17.09
2022-10-25T02:38:39.266Z,17.02
2022-10-25T02:41:06.130Z,16.57
2022-10-25T02:43:32.772Z,16.87
2022-10-25T02:45:59.817Z,17.10
2022-10-25T02:48:26.525Z,16.88
2022-10-25T02:50:52.994Z,16.47
2022-10-25T02:53:19.407Z,16.46
2022-10-25T02:55:45.834Z,17.05
2022-10-25T02:58:12.285Z,16.92
2022-10-25T03:00:38.635Z,16.69
2022-10-25T03:03:04.999Z,16.92
2022-10-25T03:05:31.294Z,16.89
2022-10-25T03:07:57.623Z,16.95
2022-10-25T03:10:24.045Z,16.83
2022-10-25T03:12:50.371Z,16.97
2022-10-25T03:15:16.777Z,17.07
2022-10-25T03:17:43.083Z,16.86
2022-10-25T03:20:09.699Z,16.94
2022-10-25T03:22:36.018Z,16.85
2022-10-25T03:25:02.420Z,17.10
2022-10-25T03:27:28.786Z,16.91
2022-10-25T03:29:55.255Z,16.98
2022-10-25T03:32:21.584Z,17.17
2022-10-25T03:34:47.969Z,17.02
2022-10-25T03:37:14.340Z,16.97
2022-10-25T03:39:40.756Z,16.82
2022-10-25T03:42:07.182Z,16.87
2022-10-25T03:44:33.502Z,16.47
2022-10-25T03:46:59.809Z,16.94
2022-10-25T03:49:26.553Z,17.07
2022-10-25T03:51:57.032Z,17.13
2022-10-25T03:54:28.363Z,17.02
2022-10-25T03:56:55.734Z,16.98
2022-10-25T03:59:22.033Z,16.84
2022-10-25T04:01:48.933Z,16.91
2022-10-25T04:04:15.346Z,16.99
2022-10-25T04:06:41.646Z,16.92
2022-10-25T04:09:08.296Z,16.90
2022-10-25T04:11:34.638Z,16.93
2022-10-25T04:14:00.989Z,17.07
2022-10-25T04:16:27.329Z,16.95
2022-10-25T04:18:53.966Z,17.18
2022-10-25T04:21:21.317Z,16.95
2022-10-25T04:23:49.282Z,17.25
2022-10-25T04:26:18.537Z,17.01
2022-10-25T04:28:49.961Z,17.19
2022-10-25T04:31:16.725Z,17.16
2022-10-25T04:33:46.508Z,16.96
2022-10-25T04:36:15.349Z,17.21
2022-10-25T04:38:41.891Z,16.97
2022-10-25T04:41:09.993Z,16.74
2022-10-25T04:43:36.902Z,16.66
2022-10-25T04:46:03.670Z,17.16
2022-10-25T04:48:30.038Z,16.83
2022-10-25T04:50:59.758Z,17.21
2022-10-25T04:53:26.170Z,17.11
2022-10-25T04:56:01.032Z,16.61
2022-10-25T04:58:31.279Z,17.15
2022-10-25T05:01:04.722Z,17.03
2022-10-25T05:03:31.683Z,16.93
2022-10-25T05:06:06.447Z,16.92
2022-10-25T05:08:33.057Z,16.99
2022-10-25T05:10:59.388Z,16.94
2022-10-25T05:13:25.724Z,16.83
2022-10-25T05:15:56.021Z,16.84
2022-10-25T05:18:22.501Z,16.83
2022-10-25T05:20:56.805Z,16.98
2022-10-25T05:23:23.509Z,16.93
2022-10-25T05:26:04.171Z,17.00
2022-10-25T05:28:30.946Z,16.57
2022-10-25T05:30:57.318Z,16.87
2022-10-25T05:33:23.896Z,16.88
2022-10-25T05:35:50.286Z,17.04
2022-10-25T05:38:16.626Z,16.42
2022-10-25T05:40:43.056Z,16.81
2022-10-25T05:43:41.544Z,16.92
2022-10-25T05:46:12.489Z,16.78
2022-10-25T05:48:42.338Z,16.76
2022-10-25T05:54:14.760Z,16.61
2022-10-25T05:56:42.320Z,16.75
2022-10-25T05:59:11.109Z,16.43
2022-10-25T06:01:40.381Z,16.81
2022-10-25T06:04:07.543Z,16.65
2022-10-25T06:06:35.100Z,16.74
2022-10-25T06:09:02.326Z,16.80
2022-10-25T06:11:29.582Z,16.48
2022-10-25T06:13:56.233Z,16.34
2022-10-25T06:16:23.876Z,16.53
2022-10-25T06:18:50.534Z,16.49
2022-10-25T06:21:28.598Z,16.58
2022-10-25T06:23:56.065Z,16.26
2022-10-25T06:26:25.265Z,16.52
2022-10-25T06:28:54.100Z,16.58
2022-10-25T06:31:21.249Z,16.60
2022-10-25T06:33:48.336Z,16.42
2022-10-25T06:36:17.695Z,16.68
2022-10-25T06:38:45.101Z,16.67
2022-10-25T06:41:13.694Z,16.44
2022-10-25T06:43:40.143Z,16.75
2022-10-25T06:46:11.390Z,16.74
2022-10-25T06:48:38.137Z,16.78
2022-10-25T06:51:06.541Z,16.66
2022-10-25T06:53:33.204Z,16.84
2022-10-25T06:56:04.984Z,16.81
2022-10-25T06:58:33.628Z,16.96
2022-10-25T07:01:04.344Z,16.47
2022-10-25T07:03:35.189Z,17.09
2022-10-25T07:06:13.935Z,16.90
2022-10-25T07:08:42.952Z,16.38
2022-10-25T07:11:16.827Z,17.03
2022-10-25T07:13:44.491Z,17.05
2022-10-25T07:16:13.224Z,16.98
2022-10-25T07:18:39.789Z,17.17
2022-10-25T07:21:12.635Z,17.21
2022-10-25T07:23:42.477Z,17.07
2022-10-25T07:26:14.399Z,17.19
2022-10-25T07:28:42.450Z,17.00
2022-10-25T07:31:13.052Z,17.11
2022-10-25T07:33:39.740Z,17.23
2022-10-25T07:36:10.783Z,16.91
2022-10-25T07:38:38.074Z,17.20
2022-10-25T07:41:04.529Z,17.17
2022-10-25T07:43:30.944Z,17.37
2022-10-25T07:45:57.270Z,17.25
2022-10-25T07:48:23.681Z,17.34
2022-10-25T07:50:50.726Z,17.40
2022-10-25T07:53:17.465Z,17.48
2022-10-25T07:55:49.098Z,17.18
2022-10-25T07:58:15.473Z,17.45
2022-10-25T08:00:41.794Z,17.33
2022-10-25T08:03:08.236Z,17.61
2022-10-25T08:05:34.640Z,17.64
2022-10-25T08:08:01.026Z,17.74
2022-10-25T08:10:27.367Z,17.68
2022-10-25T08:12:55.851Z,18.00
2022-10-25T08:15:22.682Z,18.07
2022-10-25T08:17:56.539Z,18.15
2022-10-25T08:20:29.247Z,17.72
2022-10-25T08:23:09.153Z,17.86
2022-10-25T08:25:35.499Z,17.77
2022-10-25T08:28:01.823Z,17.92
2022-10-25T08:30:28.377Z,17.38
2022-10-25T08:32:57.324Z,17.94
2022-10-25T08:35:25.031Z,17.68
2022-10-25T08:37:51.713Z,18.14
2022-10-25T08:40:40.156Z,18.33
2022-10-25T08:43:28.415Z,18.26
2022-10-25T08:45:59.914Z,17.95
2022-10-25T08:48:32.650Z,17.69
2022-10-25T08:51:14.075Z,17.96
2022-10-25T08:53:48.411Z,17.76
2022-10-25T08:56:18.297Z,17.46
2022-10-25T08:58:54.072Z,18.18
2022-10-25T09:01:40.639Z,18.00
2022-10-25T09:04:07.162Z,18.21
2022-10-25T09:06:41.172Z,18.27
2022-10-25T09:09:33.420Z,18.03
2022-10-25T09:11:59.705Z,18.09
2022-10-25T09:14:50.663Z,18.45
2022-10-25T09:17:22.302Z,18.38
2022-10-25T09:19:54.695Z,18.51
2022-10-25T09:22:28.172Z,18.40
2022-10-25T09:25:02.794Z,18.41
2022-10-25T09:27:38.773Z,18.95
2022-10-25T09:30:10.999Z,18.69
2022-10-25T09:32:45.644Z,18.76
2022-10-25T09:35:27.326Z,18.48
2022-10-25T09:38:19.354Z,18.87
2022-10-25T09:41:01.169Z,18.80
2022-10-25T09:43:39.426Z,19.06
2022-10-25T09:46:13.682Z,19.29
2022-10-25T09:48:47.759Z,18.84
2022-10-25T09:51:24.705Z,19.26
2022-10-25T09:53:52.974Z,19.02
2022-10-25T09:56:19.303Z,19.18
2022-10-25T09:58:48.959Z,19.15
2022-10-25T10:01:38.200Z,18.83
2022-10-25T10:04:23.630Z,18.81
2022-10-25T10:06:52.090Z,18.99
2022-10-25T10:09:18.475Z,19.61
2022-10-25T10:11:48.000Z,20.12
2022-10-25T10:14:47.982Z,21.66
2022-10-25T10:17:18.191Z,22.42
2022-10-25T10:19:44.521Z,22.63
2022-10-25T10:22:16.579Z,22.64
2022-10-25T10:24:46.495Z,23.77
2022-10-25T10:27:22.049Z,23.19
2022-10-25T10:29:58.761Z,21.66
2022-10-25T10:32:36.883Z,22.12
2022-10-25T10:35:24.156Z,21.53
2022-10-25T10:37:50.488Z,21.31
2022-10-25T10:40:16.732Z,21.32
2022-10-25T10:42:43.266Z,21.66
2022-10-25T10:45:15.956Z,21.73
2022-10-25T10:47:51.384Z,21.55
2022-10-25T10:50:20.935Z,20.78
2022-10-25T10:52:58.157Z,20.75
2022-10-25T10:55:37.924Z,21.34
2022-10-25T10:58:15.962Z,20.97
2022-10-25T11:01:33.500Z,21.58
2022-10-25T11:04:01.371Z,21.55
2022-10-25T11:06:33.374Z,21.21
2022-10-25T11:09:20.196Z,21.71
2022-10-25T11:12:06.356Z,22.92
2022-10-25T11:14:32.981Z,23.90
2022-10-25T11:17:36.870Z,24.04
2022-10-25T11:20:30.906Z,24.99
2022-10-25T11:23:13.673Z,25.19
2022-10-25T11:26:02.120Z,24.86
2022-10-25T11:28:44.866Z,24.75
2022-10-25T11:31:39.465Z,24.99
2022-10-25T11:34:27.155Z,24.57
2022-10-25T11:37:18.731Z,24.49
2022-10-25T11:40:07.832Z,22.41
2022-10-25T11:42:55.764Z,22.39
2022-10-25T11:45:42.959Z,22.19
2022-10-25T11:48:40.383Z,22.27
2022-10-25T11:51:22.616Z,22.52
2022-10-25T11:54:17.222Z,21.59
2022-10-25T11:57:18.511Z,21.21
2022-10-25T12:00:02.807Z,20.71
2022-10-25T12:03:15.289Z,20.22
2022-10-25T12:06:15.318Z,20.55
2022-10-25T12:08:58.749Z,20.56
2022-10-25T12:11:33.648Z,21.23
2022-10-25T12:14:05.590Z,21.72
2022-10-25T12:16:35.438Z,22.06
2022-10-25T12:19:13.444Z,21.72
2022-10-25T12:21:53.423Z,22.08
2022-10-25T12:24:24.462Z,22.35
2022-10-25T12:26:54.598Z,22.02
2022-10-25T12:29:33.701Z,21.77
2022-10-25T12:32:03.105Z,21.69
2022-10-25T12:34:42.995Z,21.36
2022-10-25T12:37:24.818Z,21.27
2022-10-25T12:39:53.243Z,21.28
2022-10-25T12:42:52.063Z,21.34
2022-10-25T12:45:44.437Z,22.20
2022-10-25T12:48:32.610Z,22.53
2022-10-25T12:51:13.025Z,22.00
2022-10-25T12:54:07.216Z,21.62
2022-10-25T12:56:52.046Z,21.88
2022-10-25T13:00:00.159Z,21.75
2022-10-25T13:02:45.494Z,21.17
2022-10-25T13:05:49.772Z,20.81
2022-10-25T13:08:22.199Z,21.00
2022-10-25T13:11:01.540Z,21.00
2022-10-25T13:13:33.952Z,21.22
2022-10-25T13:16:04.604Z,21.24
2022-10-25T13:18:33.907Z,21.30
2022-10-25T13:21:02.854Z,21.24
2022-10-25T13:23:53.770Z,21.14
2022-10-25T13:26:25.562Z,20.63
2022-10-25T13:28:57.424Z,21.12
2022-10-25T13:31:35.911Z,21.30
2022-10-25T13:34:14.418Z,21.44
2022-10-25T13:36:51.431Z,21.71
2022-10-25T13:39:31.976Z,21.84
2022-10-25T13:42:16.596Z,22.04
2022-10-25T13:45:07.995Z,21.87
2022-10-25T13:47:46.690Z,21.97
2022-10-25T13:53:11.763Z,21.85
2022-10-25T13:55:45.500Z,21.53
2022-10-25T13:58:51.448Z,21.40
2022-10-25T14:01:18.108Z,21.59
2022-10-25T14:03:50.814Z,21.35
2022-10-25T14:06:37.419Z,21.22
2022-10-25T14:09:29.449Z,21.58
2022-10-25T14:12:13.721Z,21.50
2022-10-25T14:14:49.848Z,21.67
2022-10-25T14:20:08.527Z,21.32
2022-10-25T14:22:43.450Z,21.39
2022-10-25T14:25:32.047Z,21.43
2022-10-25T14:28:07.483Z,21.39
2022-10-25T14:30:39.133Z,21.62
2022-10-25T14:33:20.034Z,21.57
2022-10-25T14:35:48.736Z,21.53
2022-10-25T14:38:18.919Z,21.55
2022-10-25T14:40:56.925Z,21.71
2022-10-25T14:43:30.378Z,21.62
2022-10-25T14:46:05.745Z,21.76
2022-10-25T14:48:33.323Z,21.42
2022-10-25T14:51:06.112Z,21.56
2022-10-25T14:53:33.245Z,21.74
2022-10-25T14:56:02.230Z,21.37
2022-10-25T14:58:38.967Z,21.13
2022-10-25T15:01:05.493Z,21.21
2022-10-25T15:03:33.143Z,21.26
2022-10-25T15:05:59.943Z,21.12
2022-10-25T15:08:28.568Z,21.09
2022-10-25T15:10:57.865Z,20.87
2022-10-25T15:13:39.801Z,20.90
2022-10-25T15:16:24.935Z,21.13
2022-10-25T15:19:06.510Z,20.95
2022-10-25T15:21:50.949Z,21.27
2022-10-25T15:24:23.117Z,21.12
2022-10-25T15:27:00.796Z,21.19
2022-10-25T15:29:42.569Z,21.42
2022-10-25T15:32:19.794Z,21.41
2022-10-25T15:35:00.730Z,21.37
2022-10-25T15:37:28.359Z,21.22
2022-10-25T15:39:56.088Z,21.29
2022-10-25T15:42:24.528Z,21.22
2022-10-25T15:44:50.941Z,21.02
2022-10-25T15:47:30.619Z,20.77
2022-10-25T15:49:57.651Z,20.85
2022-10-25T15:52:24.180Z,20.64
2022-10-25T15:54:50.616Z,20.17
2022-10-25T15:57:17.834Z,19.95
2022-10-25T15:59:44.421Z,20.14
2022-10-25T16:02:17.724Z,20.39
2022-10-25T16:04:44.258Z,20.08
2022-10-25T16:07:14.125Z,20.07
2022-10-25T16:09:40.515Z,20.07
2022-10-25T16:12:09.096Z,20.08
2022-10-25T16:14:36.528Z,19.99
2022-10-25T16:17:03.133Z,19.77
2022-10-25T16:19:31.500Z,19.73
2022-10-25T16:21:58.790Z,19.55
2022-10-25T16:24:25.187Z,19.56
2022-10-25T16:26:52.589Z,19.29
2022-10-25T16:29:25.353Z,19.24
2022-10-25T16:31:52.558Z,19.61
2022-10-25T16:34:19.586Z,19.61
2022-10-25T16:36:47.335Z,19.80
2022-10-25T16:39:13.976Z,19.64
2022-10-25T16:41:42.675Z,19.42
2022-10-25T16:44:11.861Z,19.57
2022-10-25T16:46:39.100Z,19.62
2022-10-25T16:49:05.822Z,19.39
2022-10-25T16:51:34.641Z,19.18
2022-10-25T16:54:01.414Z,19.22
2022-10-25T16:56:28.015Z,19.09
2022-10-25T16:58:54.507Z,19.23
2022-10-25T17:01:35.399Z,19.15
2022-10-25T17:04:04.221Z,19.07
2022-10-25T17:06:45.945Z,18.88
2022-10-25T17:09:12.407Z,18.90
2022-10-25T17:11:38.755Z,18.91
2022-10-25T17:14:05.755Z,19.07
2022-10-25T17:16:32.236Z,19.04
2022-10-25T17:18:58.634Z,18.91
2022-10-25T17:21:25.036Z,18.79
2022-10-25T17:23:51.358Z,18.57
2022-10-25T17:26:17.747Z,18.50
2022-10-25T17:28:44.508Z,18.77
2022-10-25T17:31:13.386Z,18.54
2022-10-25T17:33:40.549Z,18.71
2022-10-25T17:36:15.583Z,18.60
2022-10-25T17:38:42.389Z,18.29
2022-10-25T17:41:09.224Z,18.01
2022-10-25T17:43:37.109Z,18.07
2022-10-25T17:46:09.521Z,18.42
2022-10-25T17:48:35.965Z,18.34
2022-10-25T17:51:10.542Z,18.18
2022-10-25T17:53:37.394Z,18.37
2022-10-25T17:56:16.078Z,18.22
2022-10-25T17:58:44.257Z,18.18
2022-10-25T18:01:12.299Z,18.21
2022-10-25T18:03:39.270Z,18.01
2022-10-25T18:06:08.939Z,18.17
2022-10-25T18:08:38.669Z,18.01
2022-10-25T18:11:13.010Z,17.91
2022-10-25T18:13:40.666Z,18.04
2022-10-25T18:16:10.880Z,17.84
2022-10-25T18:18:38.067Z,17.94
2022-10-25T18:21:13.284Z,17.74
2022-10-25T18:23:40.589Z,17.79
2022-10-25T18:26:08.693Z,17.72
2022-10-25T18:28:36.013Z,17.45
2022-10-25T18:31:04.946Z,17.68
2022-10-25T18:33:36.730Z,17.70
2022-10-25T18:36:15.763Z,17.53
2022-10-25T18:38:42.196Z,17.37
2022-10-25T18:41:10.684Z,17.37
2022-10-25T18:43:37.131Z,17.50
2022-10-25T18:46:03.678Z,17.52
2022-10-25T18:48:30.214Z,17.39
2022-10-25T18:50:56.667Z,16.70
2022-10-25T18:53:23.233Z,16.83
2022-10-25T18:55:52.965Z,17.15
2022-10-25T18:58:19.667Z,17.04
2022-10-25T19:00:46.934Z,16.73
2022-10-25T19:03:19.939Z,16.77
2022-10-25T19:05:55.240Z,16.72
2022-10-25T19:08:21.604Z,16.55
2022-10-25T19:10:50.116Z,16.76
2022-10-25T19:13:19.661Z,16.68
2022-10-25T19:15:46.567Z,16.64
2022-10-25T19:18:16.638Z,16.83
2022-10-25T19:20:46.267Z,16.92
2022-10-25T19:23:13.035Z,16.69
2022-10-25T19:25:39.432Z,16.82
2022-10-25T19:28:05.781Z,16.82
2022-10-25T19:30:35.460Z,16.92
2022-10-25T19:33:04.421Z,16.91
2022-10-25T19:35:30.869Z,16.62
2022-10-25T19:37:57.275Z,16.87
2022-10-25T19:40:23.657Z,16.58
2022-10-25T19:42:50.135Z,16.45
2022-10-25T19:45:16.508Z,16.70
2022-10-25T19:47:43.766Z,16.67
2022-10-25T19:50:10.308Z,16.62
2022-10-25T19:52:37.968Z,16.78
2022-10-25T19:55:06.212Z,16.76
2022-10-25T19:57:33.200Z,16.62
2022-10-25T19:59:59.628Z,16.42
2022-10-25T20:02:26.130Z,16.64
2022-10-25T20:04:52.697Z,16.60
2022-10-25T20:07:19.443Z,16.35
2022-10-25T20:09:45.817Z,16.64
2022-10-25T20:12:12.151Z,16.38
2022-10-25T20:14:38.538Z,16.46
2022-10-25T20:17:06.042Z,16.75
2022-10-25T20:19:32.494Z,16.66
2022-10-25T20:21:59.043Z,16.66
2022-10-25T20:24:25.500Z,16.71
2022-10-25T20:26:53.124Z,16.63
2022-10-25T20:29:24.018Z,16.69
2022-10-25T20:31:51.715Z,16.73
2022-10-25T20:34:19.498Z,16.77
2022-10-25T20:36:46.898Z,16.51
2022-10-25T20:39:13.761Z,16.37
2022-10-25T20:41:40.154Z,16.40
2022-10-25T20:44:08.755Z,16.45
2022-10-25T20:46:35.626Z,16.50
2022-10-25T20:49:03.247Z,16.36
2022-10-25T20:51:29.566Z,16.30
2022-10-25T20:53:56.914Z,16.45
2022-10-25T20:56:24.036Z,16.19
2022-10-25T20:58:50.728Z,16.27
2022-10-25T21:01:17.487Z,16.20
2022-10-25T21:03:43.990Z,16.07
2022-10-25T21:06:14.177Z,16.18
2022-10-25T21:08:40.533Z,15.78
2022-10-25T21:11:09.848Z,16.12
2022-10-25T21:13:37.182Z,16.15
2022-10-25T21:16:07.287Z,15.87
2022-10-25T21:18:33.757Z,15.86
2022-10-25T21:21:02.266Z,15.92
2022-10-25T21:23:28.683Z,15.89
2022-10-25T21:26:03.285Z,15.93
2022-10-25T21:28:38.030Z,15.89
2022-10-25T21:31:10.712Z,16.01
2022-10-25T21:33:37.271Z,15.84
2022-10-25T21:36:09.242Z,16.00
2022-10-25T21:38:35.845Z,15.98
2022-10-25T21:41:08.192Z,15.98
2022-10-25T21:43:34.698Z,15.82
2022-10-25T21:46:04.397Z,15.62
2022-10-25T21:48:30.693Z,15.89
2022-10-25T21:50:58.811Z,15.97
2022-10-25T21:53:25.643Z,15.92
2022-10-25T21:56:02.176Z,15.93
2022-10-25T21:58:28.479Z,15.81
2022-10-25T22:00:54.806Z,15.73
2022-10-25T22:03:23.078Z,15.89
2022-10-25T22:05:51.917Z,16.05
2022-10-25T22:08:21.724Z,15.97
2022-10-25T22:11:05.057Z,16.01
2022-10-25T22:13:32.007Z,15.89
2022-10-25T22:16:04.598Z,16.05
2022-10-25T22:18:31.271Z,16.19
2022-10-25T22:21:00.689Z,16.04
2022-10-25T22:23:29.406Z,16.11
2022-10-25T22:26:00.229Z,15.94
2022-10-25T22:28:27.001Z,16.04
2022-10-25T22:31:01.910Z,15.87
2022-10-25T22:33:29.373Z,15.89
2022-10-25T22:36:00.754Z,16.11
2022-10-25T22:38:28.085Z,15.95
2022-10-25T22:40:58.754Z,15.93
2022-10-25T22:43:25.578Z,16.14
2022-10-25T22:45:52.105Z,16.38
2022-10-25T22:48:18.446Z,16.35
2022-10-25T22:50:53.596Z,16.58
2022-10-25T22:53:21.693Z,16.39
2022-10-25T22:56:00.498Z,16.64
2022-10-25T22:58:28.489Z,16.60
2022-10-25T23:03:45.490Z,16.54
2022-10-25T23:06:14.629Z,16.47
2022-10-25T23:08:41.631Z,16.53
2022-10-25T23:11:13.109Z,16.67
2022-10-25T23:13:39.431Z,16.66
2022-10-25T23:16:06.514Z,16.63
2022-10-25T23:18:33.390Z,16.57
2022-10-25T23:21:01.953Z,16.59
2022-10-25T23:23:34.159Z,16.41
2022-10-25T23:26:00.732Z,16.49
2022-10-25T23:28:29.925Z,16.69
2022-10-25T23:30:56.530Z,16.81
2022-10-25T23:33:22.860Z,16.59
2022-10-25T23:35:49.184Z,16.50
2022-10-25T23:38:15.509Z,16.53
2022-10-25T23:40:46.735Z,16.81
2022-10-25T23:43:13.139Z,16.69
2022-10-25T23:45:41.825Z,16.76
2022-10-25T23:48:08.166Z,16.59
2022-10-25T23:50:34.479Z,16.48
2022-10-25T23:53:00.803Z,16.63
2022-10-25T23:55:27.388Z,16.15
2022-10-25T23:57:57.869Z,16.82
